Time;durP1;ratioP1;P1;durP2;ratioP2;P2;SDS_P1;SDS_P2;PMS_P1;PMS_P2;Temp;Humidity;BMP_temperature;BMP_pressure;BME280_temperature;BME280_humidity;BME280_pressure;Samples;Min_cycle;Max_cycle;Signal;HPM_P1;HPM_P2
2022/12/03 00:00:26;;;;;;;26.48;15.82;;;5.10;92.30;;;;;;5044482;28;20028;-76
2022/12/03 00:02:51;;;;;;;29.92;14.75;;;5.10;91.60;;;;;;5039327;28;20438;-74
2022/12/03 00:05:17;;;;;;;25.65;14.45;;;5.10;91.40;;;;;;5040261;28;20347;-76
2022/12/03 00:07:43;;;;;;;34.83;19.30;;;5.10;92.30;;;;;;5036262;28;20483;-74
2022/12/03 00:10:09;;;;;;;31.60;19.35;;;5.10;91.60;;;;;;5042633;28;20505;-75
2022/12/03 00:12:35;;;;;;;22.27;12.68;;;5.00;92.00;;;;;;5039628;28;20049;-75
2022/12/03 00:15:01;;;;;;;34.05;18.35;;;5.00;91.80;;;;;;5047064;28;20119;-74
2022/12/03 00:17:26;;;;;;;37.97;20.00;;;5.10;91.50;;;;;;5044231;28;20108;-75
2022/12/03 00:19:52;;;;;;;24.80;13.05;;;5.00;90.70;;;;;;5021281;28;20021;-74
2022/12/03 00:22:18;;;;;;;27.80;14.95;;;5.10;91.30;;;;;;5041370;28;20031;-75
2022/12/03 00:24:44;;;;;;;30.35;16.25;;;5.10;91.60;;;;;;5042709;28;20029;-75
2022/12/03 00:27:10;;;;;;;41.67;23.13;;;5.00;91.30;;;;;;5025136;28;20048;-75
2022/12/03 00:29:36;;;;;;;34.72;18.25;;;5.00;90.10;;;;;;5048498;28;20033;-75
2022/12/03 00:32:02;;;;;;;25.10;14.05;;;5.00;89.20;;;;;;5049539;28;20033;-75
2022/12/03 00:34:28;;;;;;;28.17;14.57;;;5.10;91.00;;;;;;5048541;28;20078;-76
2022/12/03 00:36:53;;;;;;;31.48;16.98;;;5.10;90.80;;;;;;5046382;28;20433;-75
2022/12/03 00:39:19;;;;;;;33.65;16.90;;;5.10;89.70;;;;;;5049773;28;20029;-75
2022/12/03 00:41:45;;;;;;;22.52;13.35;;;5.10;90.30;;;;;;5023592;28;20047;-73
2022/12/03 00:44:11;;;;;;;41.95;22.95;;;5.20;91.80;;;;;;5036496;28;20074;-74
2022/12/03 00:46:36;;;;;;;29.85;16.50;;;5.20;91.80;;;;;;5032384;28;21028;-75
2022/12/03 00:49:02;;;;;;;24.45;12.90;;;5.20;91.40;;;;;;5045859;28;21092;-76
2022/12/03 00:51:28;;;;;;;29.88;17.17;;;5.20;92.00;;;;;;5050673;28;20076;-75
2022/12/03 00:53:54;;;;;;;40.25;23.45;;;5.20;91.80;;;;;;5045872;28;20025;-74
2022/12/03 00:56:20;;;;;;;33.95;20.50;;;5.20;91.90;;;;;;5049810;28;20036;-74
2022/12/03 00:58:47;;;;;;;30.35;16.88;;;5.10;91.30;;;;;;5045909;28;20423;-75
2022/12/03 01:01:12;;;;;;;24.65;12.32;;;5.10;91.40;;;;;;5044530;28;20028;-75
2022/12/03 01:03:38;;;;;;;44.13;25.27;;;5.20;92.00;;;;;;5045035;28;20033;-74
2022/12/03 01:06:04;;;;;;;23.63;13.07;;;5.30;92.80;;;;;;5033559;28;20029;-76
2022/12/03 01:08:30;;;;;;;34.95;19.52;;;5.30;92.60;;;;;;5048019;28;20037;-74
2022/12/03 01:10:55;;;;;;;30.63;18.02;;;5.20;92.20;;;;;;5046285;28;20510;-74
2022/12/03 01:13:21;;;;;;;42.85;23.45;;;5.20;91.90;;;;;;5048802;28;20499;-76
2022/12/03 01:15:46;;;;;;;34.20;17.40;;;5.10;91.40;;;;;;5031473;28;20025;-74
2022/12/03 01:18:15;;;;;;;37.45;20.00;;;5.10;90.80;;;;;;5049104;28;20025;-74
2022/12/03 01:20:40;;;;;;;43.13;23.58;;;5.00;90.10;;;;;;5020958;28;20506;-75
2022/12/03 01:23:06;;;;;;;31.42;17.45;;;5.00;90.50;;;;;;5048907;28;20056;-75
2022/12/03 01:25:32;;;;;;;29.67;16.83;;;5.00;90.90;;;;;;5046503;28;20086;-75
2022/12/03 01:27:58;;;;;;;41.13;22.25;;;5.10;91.10;;;;;;5049300;28;20033;-76
2022/12/03 01:30:24;;;;;;;30.15;15.90;;;5.10;91.50;;;;;;5038543;28;20153;-76
2022/12/03 01:32:50;;;;;;;41.80;22.90;;;5.10;90.80;;;;;;5044650;28;20091;-75
2022/12/03 01:35:15;;;;;;;37.08;19.17;;;5.10;90.10;;;;;;5046314;28;20029;-74
2022/12/03 01:37:41;;;;;;;37.97;20.63;;;5.10;89.80;;;;;;5031278;28;20040;-75
2022/12/03 01:40:10;;;;;;;35.97;19.67;;;5.10;90.10;;;;;;5039782;28;20033;-74
2022/12/03 01:42:39;;;;;;;38.65;21.15;;;5.10;89.00;;;;;;5045225;28;20029;-76
2022/12/03 01:45:06;;;;;;;39.38;22.33;;;5.10;90.60;;;;;;5046239;28;20060;-77
2022/12/03 01:47:36;;;;;;;34.97;18.00;;;5.00;90.50;;;;;;5048418;28;20029;-75
2022/12/03 01:50:23;;;;;;;;;;;5.00;91.60;;;;;;5044898;28;20064;-74
2022/12/03 01:52:48;;;;;;;41.08;21.38;;;5.10;92.60;;;;;;5048376;28;19905;-76
2022/12/03 01:55:18;;;;;;;22.70;12.30;;;5.10;92.20;;;;;;5047157;28;20029;-75
2022/12/03 01:57:47;;;;;;;40.20;20.90;;;5.00;92.30;;;;;;5032226;28;20498;-75
2022/12/03 02:00:25;;;;;;;43.78;24.58;;;5.10;93.30;;;;;;5027267;28;20017;-76
2022/12/03 02:03:01;;;;;;;43.55;24.27;;;4.90;91.90;;;;;;5037901;28;20013;-76
2022/12/03 02:05:32;;;;;;;40.85;23.30;;;4.90;91.40;;;;;;5044776;28;20474;-75
2022/12/03 02:07:58;;;;;;;36.22;18.90;;;4.90;91.90;;;;;;5043222;28;20087;-75
2022/12/03 02:10:35;;;;;;;37.08;20.90;;;4.90;91.40;;;;;;5043434;28;20538;-75
2022/12/03 02:13:05;;;;;;;41.78;22.30;;;4.90;91.50;;;;;;5026812;28;20061;-75
2022/12/03 02:15:31;;;;;;;;;;;4.90;91.80;;;;;;5044075;28;20021;-75
2022/12/03 02:17:57;;;;;;;32.10;17.63;;;5.00;91.40;;;;;;5038085;28;20316;-74
2022/12/03 02:20:22;;;;;;;39.88;19.83;;;4.90;91.20;;;;;;5046948;28;20025;-76
2022/12/03 02:23:03;;;;;;;35.25;18.77;;;4.90;91.90;;;;;;5030355;28;20691;-76
2022/12/03 02:25:42;;;;;;;26.42;15.73;;;5.00;93.40;;;;;;5029919;28;20028;-77
2022/12/03 02:28:08;;;;;;;38.35;20.00;;;5.10;93.30;;;;;;5042194;28;20063;-76
2022/12/03 02:30:35;;;;;;;38.28;21.38;;;5.10;93.20;;;;;;5033063;28;20009;-75
2022/12/03 02:33:01;;;;;;;45.13;25.13;;;5.10;92.80;;;;;;5020504;28;20064;-75
2022/12/03 02:35:31;;;;;;;39.78;23.13;;;5.10;92.70;;;;;;5049710;28;20687;-74
2022/12/03 02:38:10;;;;;;;;;;;5.20;93.10;;;;;;5039358;28;20021;-75
2022/12/03 02:40:37;;;;;;;34.70;17.63;;;5.20;93.20;;;;;;5041560;28;19947;-75
2022/12/03 02:43:03;;;;;;;33.53;19.73;;;5.10;91.80;;;;;;5033790;28;20022;-75
2022/12/03 02:45:32;;;;;;;43.10;23.40;;;5.10;91.60;;;;;;5053144;28;20024;-75
2022/12/03 02:48:15;;;;;;;41.83;22.92;;;5.00;91.10;;;;;;5041156;28;20029;-77
2022/12/03 02:50:46;;;;;;;41.55;22.00;;;5.00;90.80;;;;;;5051677;28;20024;-74
2022/12/03 02:53:17;;;;;;;40.20;23.23;;;5.00;91.00;;;;;;5042901;28;20017;-75
2022/12/03 02:55:46;;;;;;;37.42;19.77;;;5.00;90.20;;;;;;5039535;28;20104;-76
2022/12/03 02:58:13;;;;;;;42.08;23.80;;;5.00;90.80;;;;;;5033578;28;20510;-75
2022/12/03 03:00:39;;;;;;;40.63;21.45;;;5.00;90.70;;;;;;5031063;28;20523;-77
2022/12/03 03:03:06;;;;;;;45.78;25.70;;;5.00;90.90;;;;;;5051207;28;20402;-76
2022/12/03 03:05:34;;;;;;;20.25;11.77;;;5.00;91.00;;;;;;5049355;28;20033;-74
2022/12/03 03:08:01;;;;;;;44.10;25.60;;;5.10;92.70;;;;;;5030496;28;20059;-76
2022/12/03 03:10:28;;;;;;;28.48;14.68;;;5.10;92.70;;;;;;5051492;28;20032;-75
2022/12/03 03:12:54;;;;;;;39.55;22.00;;;5.10;94.00;;;;;;5051487;28;20053;-75
2022/12/03 03:15:21;;;;;;;37.40;22.23;;;5.00;92.90;;;;;;5033457;28;20833;-75
2022/12/03 03:17:47;;;;;;;31.20;15.35;;;5.00;92.20;;;;;;5045695;28;20017;-76
2022/12/03 03:20:13;;;;;;;38.95;21.60;;;5.00;93.00;;;;;;5046200;28;20023;-76
2022/12/03 03:22:41;;;;;;;39.75;22.08;;;4.90;92.60;;;;;;5032710;28;20025;-76
2022/12/03 03:25:10;;;;;;;31.70;18.05;;;4.90;92.30;;;;;;5031142;28;20020;-75
2022/12/03 03:27:37;;;;;;;20.83;10.80;;;4.90;92.70;;;;;;5031760;28;20029;-74
2022/12/03 03:30:04;;;;;;;26.50;14.48;;;5.10;94.40;;;;;;5041799;28;20451;-75
2022/12/03 03:32:30;;;;;;;36.08;21.00;;;5.00;93.90;;;;;;5048865;28;20103;-75
2022/12/03 03:34:56;;;;;;;36.58;20.75;;;5.10;93.40;;;;;;5041396;28;20116;-76
2022/12/03 03:37:22;;;;;;;37.85;22.67;;;5.00;92.30;;;;;;5028393;28;20446;-74
2022/12/03 03:40:03;;;;;;;40.15;24.38;;;5.00;91.00;;;;;;5038349;28;20021;-74
2022/12/03 03:42:29;;;;;;;33.25;16.95;;;4.90;90.70;;;;;;5047218;28;20047;-76
2022/12/03 03:44:55;;;;;;;28.33;17.85;;;4.90;91.10;;;;;;5027612;28;20535;-75
2022/12/03 03:47:22;;;;;;;29.23;16.17;;;4.90;91.40;;;;;;5024300;28;20490;-74
2022/12/03 03:49:49;;;;;;;34.47;18.63;;;4.90;92.40;;;;;;5034355;28;20431;-74
2022/12/03 03:52:16;;;;;;;31.27;17.88;;;4.90;92.40;;;;;;5038203;28;20025;-75
2022/12/03 03:54:42;;;;;;;25.95;15.38;;;4.90;90.80;;;;;;5046921;28;20518;-74
2022/12/03 03:57:07;;;;;;;29.33;16.58;;;4.90;91.10;;;;;;5049083;28;20025;-75
2022/12/03 03:59:33;;;;;;;28.77;15.75;;;4.80;91.30;;;;;;5050667;28;20029;-76
2022/12/03 04:01:59;;;;;;;29.42;17.02;;;4.80;90.80;;;;;;5049397;28;20025;-75
2022/12/03 04:04:26;;;;;;;27.95;15.18;;;4.60;90.30;;;;;;5045090;28;20021;-75
2022/12/03 04:06:51;;;;;;;31.13;18.48;;;4.70;92.10;;;;;;5040847;28;20445;-75
2022/12/03 04:09:17;;;;;;;27.70;15.73;;;4.70;93.20;;;;;;5047244;28;20526;-74
2022/12/03 04:14:27;;;;;;;33.10;20.23;;;4.70;92.10;;;;;;5046620;28;20048;-74
2022/12/03 04:16:53;;;;;;;29.55;16.85;;;4.60;90.40;;;;;;5051035;28;20025;-75
2022/12/03 04:19:18;;;;;;;30.92;17.83;;;4.60;89.50;;;;;;5049957;28;20031;-75
2022/12/03 04:24:28;;;;;;;31.27;18.60;;;4.60;91.40;;;;;;5048328;28;20505;-74
2022/12/03 04:29:38;;;;;;;26.00;15.80;;;4.60;89.80;;;;;;5049654;28;20464;-76
2022/12/03 04:37:32;;;;;;;42.25;22.33;;;4.60;90.60;;;;;;5040465;28;20414;-75
2022/12/03 04:39:58;;;;;;;37.25;20.60;;;4.60;91.20;;;;;;5045655;28;20029;-75
2022/12/03 04:42:24;;;;;;;31.92;18.80;;;4.70;90.40;;;;;;5046806;28;20027;-75
2022/12/03 04:44:50;;;;;;;40.65;22.45;;;4.70;88.30;;;;;;5048702;28;20155;-75
2022/12/03 04:47:19;;;;;;;37.40;22.33;;;4.70;88.80;;;;;;5028282;28;20033;-76
2022/12/03 04:49:49;;;;;;;28.38;16.50;;;4.60;86.50;;;;;;5049711;28;20021;-75
2022/12/03 04:52:17;;;;;;;29.88;18.83;;;4.60;86.20;;;;;;5038740;28;20024;-75
2022/12/03 04:54:43;;;;;;;36.80;19.73;;;4.60;88.50;;;;;;5048980;28;20020;-75
2022/12/03 04:57:10;;;;;;;33.22;19.63;;;4.60;87.60;;;;;;5036879;28;20036;-75
2022/12/03 04:59:36;;;;;;;27.05;16.10;;;4.60;88.40;;;;;;5049030;28;20064;-75
2022/12/03 05:02:03;;;;;;;36.97;20.00;;;4.70;91.40;;;;;;5039474;28;20104;-75
2022/12/03 05:04:29;;;;;;;33.10;18.95;;;4.70;90.20;;;;;;5035908;28;20028;-76
2022/12/03 05:06:55;;;;;;;38.53;21.02;;;4.60;88.80;;;;;;5044291;28;20025;-75
2022/12/03 05:09:20;;;;;;;37.00;21.63;;;4.60;87.90;;;;;;5043900;28;20038;-75
2022/12/03 05:11:46;;;;;;;36.28;18.92;;;4.60;89.90;;;;;;5037207;28;20171;-74
2022/12/03 05:14:11;;;;;;;37.72;19.98;;;4.50;89.80;;;;;;5049295;28;20025;-75
2022/12/03 05:16:38;;;;;;;29.27;14.32;;;4.50;89.10;;;;;;5044785;28;20025;-75
2022/12/03 05:19:06;;;;;;;39.65;21.50;;;4.50;91.20;;;;;;5048348;28;20021;-74
2022/12/03 05:21:32;;;;;;;39.53;22.85;;;4.40;91.30;;;;;;5045098;28;20111;-76
2022/12/03 05:23:58;;;;;;;33.20;19.40;;;4.40;90.80;;;;;;5043637;28;20060;-76
2022/12/03 05:26:23;;;;;;;39.67;23.05;;;4.50;91.00;;;;;;5044477;28;20028;-75
2022/12/03 05:28:49;;;;;;;29.83;16.27;;;4.50;90.50;;;;;;5036664;28;20690;-76
2022/12/03 05:31:15;;;;;;;37.47;21.67;;;4.50;91.20;;;;;;5037738;28;20025;-75
2022/12/03 05:33:41;;;;;;;38.60;22.33;;;4.50;91.60;;;;;;5046467;28;20097;-75
2022/12/03 05:36:07;;;;;;;40.35;23.25;;;4.50;92.00;;;;;;5051248;28;20023;-75
2022/12/03 05:38:32;;;;;;;41.70;23.48;;;4.40;90.90;;;;;;5043335;28;20125;-76
2022/12/03 05:40:58;;;;;;;42.60;23.23;;;4.50;90.80;;;;;;5028740;28;20291;-75
2022/12/03 05:43:24;;;;;;;32.60;17.63;;;4.50;90.30;;;;;;5033864;28;20018;-75
2022/12/03 05:45:51;;;;;;;44.03;26.23;;;4.70;92.80;;;;;;5040078;28;20032;-74
2022/12/03 05:48:17;;;;;;;41.63;22.75;;;4.60;91.10;;;;;;5044916;28;20039;-73
2022/12/03 05:50:45;;;;;;;42.00;23.58;;;4.60;91.80;;;;;;5043986;28;20032;-76
2022/12/03 05:53:11;;;;;;;29.70;16.52;;;4.50;91.20;;;;;;5036947;28;20056;-73
2022/12/03 05:55:37;;;;;;;36.03;19.23;;;4.60;92.10;;;;;;5047711;28;20458;-76
2022/12/03 05:58:04;;;;;;;38.00;21.45;;;4.60;93.00;;;;;;5036408;28;20020;-74
2022/12/03 06:00:36;;;;;;;38.80;20.98;;;4.60;93.00;;;;;;5036913;28;20095;-75
2022/12/03 06:03:05;;;;;;;41.75;23.02;;;4.60;92.60;;;;;;5040905;28;20033;-75
2022/12/03 06:05:31;;;;;;;38.67;21.35;;;4.50;91.60;;;;;;5033780;28;20450;-75
2022/12/03 06:07:57;;;;;;;40.00;21.85;;;4.50;91.30;;;;;;5044570;28;20041;-75
2022/12/03 06:10:24;;;;;;;38.92;21.35;;;4.50;91.40;;;;;;5046693;28;20092;-76
2022/12/03 06:12:50;;;;;;;40.30;22.40;;;4.50;92.40;;;;;;5035597;28;20682;-76
2022/12/03 06:15:17;;;;;;;36.97;22.48;;;4.50;92.30;;;;;;5041521;28;20049;-75
2022/12/03 06:17:43;;;;;;;33.25;17.02;;;4.50;91.20;;;;;;5042580;28;20110;-76
2022/12/03 06:20:13;;;;;;;36.50;21.15;;;4.50;92.00;;;;;;5030854;28;20081;-76
2022/12/03 06:22:39;;;;;;;;;;;4.50;92.20;;;;;;5049643;28;20025;-75
2022/12/03 06:25:04;;;;;;;42.47;22.52;;;4.50;91.10;;;;;;5035837;28;20405;-75
2022/12/03 06:27:30;;;;;;;42.90;22.77;;;4.50;90.70;;;;;;5004306;28;20340;-75
2022/12/03 06:29:56;;;;;;;30.35;15.38;;;4.40;90.30;;;;;;5039102;28;20025;-75
2022/12/03 06:32:21;;;;;;;33.53;19.55;;;4.40;91.50;;;;;;5047678;28;20060;-76
2022/12/03 06:34:47;;;;;;;28.17;14.82;;;4.40;91.60;;;;;;5040464;28;20032;-75
2022/12/03 06:37:13;;;;;;;32.47;16.10;;;4.30;91.90;;;;;;5021502;28;20111;-74
2022/12/03 06:39:38;;;;;;;38.58;20.40;;;4.40;92.80;;;;;;5043668;28;20032;-75
2022/12/03 06:42:04;;;;;;;32.33;16.50;;;4.40;92.20;;;;;;5047611;28;20055;-74
2022/12/03 06:44:30;;;;;;;45.83;24.95;;;4.50;92.20;;;;;;5046834;28;20033;-76
2022/12/03 06:46:55;;;;;;;39.53;20.77;;;4.50;92.40;;;;;;5046888;28;20029;-75
2022/12/03 06:49:21;;;;;;;42.85;21.45;;;4.50;91.30;;;;;;5027408;28;20029;-75
2022/12/03 06:51:47;;;;;;;42.53;21.80;;;4.60;92.00;;;;;;5027534;28;20048;-75
2022/12/03 06:54:12;;;;;;;33.28;19.92;;;4.60;90.70;;;;;;5044140;28;20115;-76
2022/12/03 06:56:38;;;;;;;38.22;20.35;;;4.60;90.80;;;;;;5039219;28;20026;-76
2022/12/03 06:59:04;;;;;;;40.67;21.27;;;4.50;90.80;;;;;;5044829;28;20021;-74
2022/12/03 07:01:30;;;;;;;42.67;22.40;;;4.50;90.20;;;;;;5040969;28;20076;-75
2022/12/03 07:03:56;;;;;;;19.73;10.93;;;4.50;90.50;;;;;;5040591;28;20028;-76
2022/12/03 07:06:22;;;;;;;30.67;16.17;;;4.60;92.10;;;;;;5044792;28;20029;-75
2022/12/03 07:08:47;;;;;;;37.35;19.92;;;4.60;92.10;;;;;;5039717;28;20462;-76
2022/12/03 07:11:31;;;;;;;43.25;23.73;;;4.60;91.30;;;;;;5033652;28;20113;-75
2022/12/03 07:14:01;;;;;;;42.72;22.02;;;4.60;90.90;;;;;;5038766;28;20039;-75
2022/12/03 07:16:27;;;;;;;39.65;20.95;;;4.50;90.00;;;;;;5043979;28;20138;-76
2022/12/03 07:18:54;;;;;;;46.33;22.88;;;4.50;89.60;;;;;;5016439;28;20030;-75
2022/12/03 07:21:23;;;;;;;40.90;20.80;;;4.50;89.20;;;;;;5041834;28;20155;-76
2022/12/03 07:23:48;;;;;;;41.97;21.08;;;4.50;90.00;;;;;;5020716;28;20527;-74
2022/12/03 07:26:14;;;;;;;52.22;26.40;;;4.50;90.80;;;;;;5041736;28;20052;-75
2022/12/03 07:28:40;;;;;;;46.10;23.60;;;4.50;91.20;;;;;;5041292;28;20032;-74
2022/12/03 07:31:05;;;;;;;44.20;21.75;;;4.50;91.10;;;;;;5035400;28;20056;-74
2022/12/03 07:33:31;;;;;;;50.25;23.70;;;4.50;91.70;;;;;;5034053;28;20030;-78
2022/12/03 07:35:57;;;;;;;52.47;27.33;;;4.40;91.20;;;;;;5037425;28;20599;-76
2022/12/03 07:38:24;;;;;;;50.17;24.85;;;4.50;92.50;;;;;;5038576;28;20021;-75
2022/12/03 07:40:50;;;;;;;53.17;28.10;;;4.50;92.60;;;;;;5035381;28;20112;-74
2022/12/03 07:43:15;;;;;;;54.05;25.70;;;4.40;91.40;;;;;;5032369;28;20025;-74
2022/12/03 07:45:42;;;;;;;52.22;26.08;;;4.50;92.00;;;;;;5019785;28;20028;-75
2022/12/03 07:48:08;;;;;;;54.17;28.05;;;4.40;91.60;;;;;;5034724;28;20471;-76
2022/12/03 07:50:33;;;;;;;50.75;24.90;;;4.50;92.20;;;;;;5037489;28;20013;-73
2022/12/03 07:52:59;;;;;;;61.63;27.77;;;4.40;91.90;;;;;;5037316;28;20618;-77
2022/12/03 07:55:24;;;;;;;56.10;27.33;;;4.30;91.80;;;;;;5036457;28;20535;-75
2022/12/03 07:57:50;;;;;;;49.38;23.02;;;4.40;91.50;;;;;;5035718;28;20034;-75
2022/12/03 08:00:16;;;;;;;71.95;37.28;;;4.40;92.60;;;;;;5038264;28;20029;-74
2022/12/03 08:02:42;;;;;;;54.78;24.98;;;4.40;92.40;;;;;;5018027;28;20030;-75
2022/12/03 08:05:08;;;;;;;62.30;29.52;;;4.40;93.20;;;;;;5036322;28;20025;-75
2022/12/03 08:07:34;;;;;;;61.50;27.58;;;4.40;93.20;;;;;;5018000;28;20063;-77
2022/12/03 08:09:59;;;;;;;56.45;29.30;;;4.40;92.70;;;;;;5038677;28;20033;-74
2022/12/03 08:12:38;;;;;;;50.63;25.27;;;4.50;93.40;;;;;;5039762;28;20045;-76
2022/12/03 08:15:26;;;;;;;58.53;28.30;;;4.40;92.40;;;;;;5047297;28;20057;-75
2022/12/03 08:17:59;;;;;;;54.13;27.35;;;4.40;90.70;;;;;;5045722;28;20029;-74
2022/12/03 08:20:27;;;;;;;55.20;26.20;;;4.40;91.60;;;;;;5020642;28;20083;-73
2022/12/03 08:22:54;;;;;;;58.05;29.08;;;4.40;91.10;;;;;;5038088;28;20013;-74
2022/12/03 08:25:23;;;;;;;59.35;26.50;;;4.50;92.40;;;;;;5021687;28;20017;-74
2022/12/03 08:28:11;;;;;;;62.85;32.03;;;4.50;93.10;;;;;;5040495;28;20099;-75
2022/12/03 08:30:38;;;;;;;48.25;21.88;;;4.50;92.60;;;;;;5037507;28;20063;-75
2022/12/03 08:33:25;;;;;;;63.72;30.27;;;4.50;92.60;;;;;;5041357;28;20025;-74
2022/12/03 08:35:51;;;;;;;68.55;31.48;;;4.30;91.80;;;;;;5039144;28;20033;-74
2022/12/03 08:38:21;;;;;;;64.18;34.65;;;4.30;91.40;;;;;;5036977;28;20133;-75
2022/12/03 08:40:50;;;;;;;61.70;32.55;;;4.30;91.70;;;;;;5032187;28;20025;-73
2022/12/03 08:43:23;;;;;;;62.60;28.38;;;4.30;90.80;;;;;;5039484;28;20017;-75
2022/12/03 08:45:51;;;;;;;47.83;24.42;;;4.30;90.60;;;;;;5022281;28;20029;-75
2022/12/03 08:48:33;;;;;;;53.13;26.42;;;4.20;90.20;;;;;;5036362;28;20706;-75
2022/12/03 08:51:05;;;;;;;64.35;32.17;;;4.30;91.30;;;;;;5034756;28;20446;-76
2022/12/03 08:53:37;;;;;;;64.03;28.88;;;4.30;90.70;;;;;;5021253;28;20483;-74
2022/12/03 08:56:20;;;;;;;58.88;27.30;;;4.30;90.40;;;;;;5046321;28;20048;-75
2022/12/03 08:58:56;;;;;;;58.42;28.75;;;4.30;89.10;;;;;;5036731;28;20017;-75
2022/12/03 09:01:52;;;;;;;60.20;31.20;;;4.20;89.50;;;;;;5038824;28;20079;-75
2022/12/03 09:04:34;;;;;;;59.85;30.65;;;4.10;88.60;;;;;;5023743;28;20487;-74
2022/12/03 09:07:00;;;;;;;62.60;28.50;;;4.10;88.00;;;;;;5037632;28;20035;-76
2022/12/03 09:09:26;;;;;;;52.78;22.95;;;4.10;89.10;;;;;;5039129;28;20403;-73
2022/12/03 09:11:52;;;;;;;53.50;26.42;;;4.10;90.00;;;;;;5037708;28;20137;-75
2022/12/03 09:14:21;;;;;;;57.17;26.60;;;4.10;90.90;;;;;;5045711;28;20033;-74
2022/12/03 09:16:50;;;;;;;61.78;30.25;;;4.10;91.60;;;;;;5020256;28;20022;-75
2022/12/03 09:19:16;;;;;;;60.80;27.63;;;4.10;91.00;;;;;;5036883;28;20482;-75
2022/12/03 09:21:44;;;;;;;59.45;25.85;;;4.10;90.40;;;;;;5038336;28;20041;-75
2022/12/03 09:24:10;;;;;;;64.10;26.85;;;4.00;90.20;;;;;;5028557;28;20036;-75
2022/12/03 09:26:35;;;;;;;55.90;23.95;;;4.00;90.60;;;;;;5028260;28;20033;-74
2022/12/03 09:29:01;;;;;;;57.75;26.02;;;4.00;90.70;;;;;;5039675;28;20040;-74
2022/12/03 09:31:42;;;;;;;63.25;25.85;;;4.00;90.50;;;;;;4994041;28;20053;-75
2022/12/03 09:34:08;;;;;;;65.88;28.77;;;4.10;90.90;;;;;;5039657;28;20032;-75
2022/12/03 09:36:34;;;;;;;57.80;24.13;;;4.10;91.00;;;;;;5038648;28;20082;-75
2022/12/03 09:39:00;;;;;;;62.85;27.40;;;4.10;90.40;;;;;;5042378;28;20021;-75
2022/12/03 09:41:26;;;;;;;57.70;27.10;;;4.20;90.40;;;;;;5038749;28;20106;-74
2022/12/03 09:43:52;;;;;;;65.18;29.73;;;4.20;90.90;;;;;;5044114;28;20087;-75
2022/12/03 09:46:22;;;;;;;61.63;29.17;;;4.20;91.10;;;;;;5041323;28;20021;-76
2022/12/03 09:48:48;;;;;;;50.93;24.00;;;4.10;90.50;;;;;;5044838;28;20056;-75
2022/12/03 09:51:14;;;;;;;56.47;26.90;;;4.10;90.60;;;;;;5044276;28;20268;-76
2022/12/03 09:53:40;;;;;;;44.97;19.23;;;4.10;90.10;;;;;;5024572;28;20021;-75
2022/12/03 09:56:14;;;;;;;52.42;23.88;;;4.10;90.30;;;;;;5027682;28;20028;-75
2022/12/03 09:58:41;;;;;;;47.28;23.35;;;4.10;91.80;;;;;;5041778;28;20568;-73
2022/12/03 10:01:13;;;;;;;50.53;23.73;;;4.20;91.30;;;;;;5039883;28;20044;-76
2022/12/03 10:03:43;;;;;;;47.10;21.27;;;4.20;91.20;;;;;;5025437;28;20031;-75
2022/12/03 10:06:15;;;;;;;41.88;21.02;;;4.20;90.10;;;;;;5038111;28;20476;-76
2022/12/03 10:08:41;;;;;;;46.92;21.05;;;4.20;89.50;;;;;;5032342;28;20103;-75
2022/12/03 10:11:07;;;;;;;48.05;22.83;;;4.10;87.40;;;;;;5039720;28;20029;-75
2022/12/03 10:13:36;;;;;;;45.55;20.40;;;4.10;86.60;;;;;;5038224;28;20028;-76
2022/12/03 10:16:02;;;;;;;45.63;20.95;;;4.10;88.90;;;;;;5040640;28;20387;-76
2022/12/03 10:18:32;;;;;;;40.28;19.00;;;4.10;86.80;;;;;;5034114;28;20038;-76
2022/12/03 10:20:58;;;;;;;;;;;4.10;88.20;;;;;;5021582;28;20032;-74
2022/12/03 10:23:29;;;;;;;46.50;20.98;;;4.10;87.90;;;;;;5042918;28;20351;-74
2022/12/03 10:26:01;;;;;;;43.00;20.98;;;4.00;87.20;;;;;;5037088;28;20021;-76
2022/12/03 10:28:37;;;;;;;42.45;17.98;;;4.00;87.70;;;;;;5035820;28;20041;-75
2022/12/03 10:31:08;;;;;;;46.10;20.50;;;4.00;88.20;;;;;;5041400;28;20029;-75
2022/12/03 10:33:37;;;;;;;40.53;19.00;;;4.00;90.00;;;;;;5032166;28;20020;-73
2022/12/03 10:36:22;;;;;;;39.55;16.95;;;4.00;90.00;;;;;;5034834;28;20040;-74
2022/12/03 10:39:08;;;;;;;44.38;21.85;;;4.00;90.70;;;;;;5015553;28;20025;-76
2022/12/03 10:41:35;;;;;;;55.22;23.80;;;4.00;90.80;;;;;;5037405;28;20430;-75
2022/12/03 10:44:24;;;;;;;55.15;23.85;;;4.00;91.10;;;;;;5004555;28;20029;-76
2022/12/03 10:47:11;;;;;;;40.50;19.85;;;4.00;90.20;;;;;;5036782;28;20107;-78
2022/12/03 10:49:37;;;;;;;53.60;25.80;;;4.00;90.10;;;;;;5042000;28;20041;-74
2022/12/03 10:52:05;;;;;;;52.13;23.10;;;4.00;90.40;;;;;;5046414;28;20049;-76
2022/12/03 10:54:34;;;;;;;42.97;18.80;;;4.10;91.60;;;;;;5024979;28;20024;-74
2022/12/03 10:57:01;;;;;;;43.70;18.60;;;4.10;90.90;;;;;;5049165;28;20028;-74
2022/12/03 10:59:31;;;;;;;46.17;20.50;;;4.10;90.60;;;;;;5049544;28;20028;-75
2022/12/03 11:01:58;;;;;;;47.80;22.73;;;4.20;93.10;;;;;;5049212;28;20024;-73
2022/12/03 11:04:31;;;;;;;41.92;19.65;;;4.20;93.30;;;;;;5042132;28;20279;-74
2022/12/03 11:06:57;;;;;;;51.45;23.98;;;4.20;92.20;;;;;;5044059;28;20025;-74
2022/12/03 11:09:31;;;;;;;48.72;23.60;;;4.20;91.20;;;;;;5042084;28;20095;-75
2022/12/03 11:12:05;;;;;;;39.80;17.30;;;4.20;90.80;;;;;;5023816;28;20041;-75
2022/12/03 11:14:52;;;;;;;48.63;22.45;;;4.30;91.10;;;;;;5041089;28;20024;-74
2022/12/03 11:17:42;;;;;;;45.13;22.65;;;4.10;89.80;;;;;;5043999;28;20439;-75
2022/12/03 11:20:32;;;;;;;;;;;4.20;90.60;;;;;;5042953;28;20064;-75
2022/12/03 11:22:58;;;;;;;39.65;18.85;;;4.10;91.30;;;;;;5012937;28;19909;-73
2022/12/03 11:25:23;;;;;;;45.67;21.13;;;4.00;91.40;;;;;;5045907;28;20017;-75
2022/12/03 11:28:10;;;;;;;47.47;20.40;;;4.00;91.40;;;;;;5045113;28;20075;-75
2022/12/03 11:30:52;;;;;;;43.53;19.23;;;4.00;90.90;;;;;;5043832;28;20195;-74
2022/12/03 11:33:22;;;;;;;32.60;15.20;;;4.00;90.30;;;;;;5042992;28;20028;-73
2022/12/03 11:36:03;;;;;;;48.00;21.80;;;4.10;90.60;;;;;;5048520;28;20163;-73
2022/12/03 11:38:41;;;;;;;43.85;19.70;;;4.10;90.40;;;;;;5047612;28;20079;-74
2022/12/03 11:41:09;;;;;;;38.75;16.25;;;4.00;90.30;;;;;;5032914;28;20017;-74
2022/12/03 11:43:55;;;;;;;43.28;21.73;;;4.00;90.50;;;;;;5036365;28;20025;-75
2022/12/03 11:46:26;;;;;;;40.15;17.63;;;4.00;91.40;;;;;;5048515;28;20088;-74
2022/12/03 11:48:54;;;;;;;45.08;20.30;;;4.00;91.90;;;;;;5029728;28;20373;-73
2022/12/03 11:51:25;;;;;;;45.63;17.65;;;4.00;91.90;;;;;;5027927;28;20021;-73
2022/12/03 11:53:53;;;;;;;44.58;19.40;;;4.00;91.70;;;;;;5047313;28;20040;-73
2022/12/03 11:56:25;;;;;;;45.25;20.10;;;4.00;91.70;;;;;;5024383;28;20040;-73
2022/12/03 11:59:03;;;;;;;38.38;15.85;;;4.00;91.90;;;;;;5020165;28;20033;-72
2022/12/03 12:01:40;;;;;;;46.90;21.52;;;4.00;92.00;;;;;;5037466;28;20034;-73
2022/12/03 12:04:24;;;;;;;41.30;16.60;;;4.10;93.10;;;;;;5043303;28;20036;-74
2022/12/03 12:06:53;;;;;;;42.17;21.92;;;4.10;93.90;;;;;;5033926;28;20040;-75
2022/12/03 12:09:51;;;;;;;42.88;18.70;;;4.10;94.80;;;;;;5041168;28;20143;-77
2022/12/03 12:12:18;;;;;;;32.42;14.00;;;4.10;94.10;;;;;;5011138;28;20065;-74
2022/12/03 12:14:44;;;;;;;39.25;18.77;;;4.10;93.50;;;;;;5013728;28;20037;-77
2022/12/03 12:17:35;;;;;;;54.05;24.67;;;4.20;95.10;;;;;;5016747;28;20088;-73
2022/12/03 12:20:25;;;;;;;31.58;13.10;;;4.10;93.70;;;;;;5016685;28;20500;-74
2022/12/03 12:22:53;;;;;;;47.45;22.20;;;4.10;94.90;;;;;;5015080;28;20159;-74
2022/12/03 12:25:40;;;;;;;48.35;22.65;;;4.20;94.70;;;;;;5013151;28;20065;-74
2022/12/03 12:28:06;;;;;;;51.42;23.70;;;4.20;93.50;;;;;;5018061;28;20028;-76
2022/12/03 12:30:32;;;;;;;49.85;21.45;;;4.20;92.00;;;;;;5017447;28;20030;-75
2022/12/03 12:33:12;;;;;;;50.90;23.48;;;4.10;91.10;;;;;;5014182;28;20029;-76
2022/12/03 12:35:40;;;;;;;;;;;4.10;91.20;;;;;;5012983;28;20148;-76
2022/12/03 12:38:06;;;;;;;56.97;24.08;;;4.10;90.90;;;;;;5014723;28;20370;-75
2022/12/03 12:40:34;;;;;;;48.88;20.80;;;4.00;90.60;;;;;;5017374;28;20057;-75
2022/12/03 12:43:03;;;;;;;49.53;20.42;;;4.00;92.20;;;;;;5015547;28;20034;-76
2022/12/03 12:45:34;;;;;;;58.05;24.60;;;4.10;95.20;;;;;;5016364;28;20052;-76
2022/12/03 12:48:08;;;;;;;53.55;23.85;;;4.10;94.30;;;;;;5014334;28;20037;-75
2022/12/03 12:50:36;;;;;;;58.80;27.67;;;4.10;93.30;;;;;;5014868;28;20030;-75
2022/12/03 12:53:15;;;;;;;58.25;25.40;;;4.10;92.40;;;;;;5014711;28;20027;-73
2022/12/03 12:55:41;;;;;;;45.65;20.85;;;4.10;92.20;;;;;;5015220;28;20026;-76
2022/12/03 12:58:13;;;;;;;47.72;21.85;;;4.10;92.20;;;;;;5022176;28;20554;-75
2022/12/03 13:00:39;;;;;;;65.68;30.30;;;4.20;93.50;;;;;;5026726;28;20025;-74